Time;durP1;ratioP1;P1;durP2;ratioP2;P2;SDS_P1;SDS_P2;PMS_P1;PMS_P2;Temp;Humidity;BMP_temperature;BMP_pressure;BME280_temperature;BME280_humidity;BME280_pressure;Samples;Min_cycle;Max_cycle;Signal;HPM_P1;HPM_P2
2023/06/12 00:01:52;;;;;;;7.30;4.90;;;;;;;23.53;37.72;101406.69;5189255;28;20496;-66
2023/06/12 00:04:23;;;;;;;7.63;4.90;;;;;;;23.53;37.65;101400.50;5189041;28;20484;-67
2023/06/12 00:06:56;;;;;;;6.73;4.83;;;;;;;23.37;37.97;101398.19;5188169;28;20042;-66
2023/06/12 00:09:28;;;;;;;8.77;5.03;;;;;;;23.24;38.17;101402.47;5188663;28;20038;-66
2023/06/12 00:11:59;;;;;;;7.45;5.40;;;;;;;23.28;38.38;101398.38;5189642;28;20471;-67
2023/06/12 00:14:31;;;;;;;8.13;5.27;;;;;;;23.34;38.32;101406.63;5188112;28;20026;-67
2023/06/12 00:17:02;;;;;;;5.80;4.93;;;;;;;23.27;38.26;101404.75;5188994;28;20034;-67
2023/06/12 00:19:33;;;;;;;6.07;5.23;;;;;;;23.17;38.46;101400.78;5190098;28;20468;-67
2023/06/12 00:22:05;;;;;;;9.03;5.23;;;;;;;23.19;38.70;101401.44;5187869;28;20030;-66
2023/06/12 00:24:36;;;;;;;10.20;5.30;;;;;;;23.00;38.68;101395.81;5189879;28;20045;-66
2023/06/12 00:27:07;;;;;;;10.43;4.90;;;;;;;22.93;39.07;101400.28;5185950;28;20062;-66
2023/06/12 00:29:39;;;;;;;7.07;5.07;;;;;;;23.00;39.15;101398.47;5183992;28;20342;-67
2023/06/12 00:32:10;;;;;;;6.27;5.07;;;;;;;22.80;39.50;101390.31;5192168;28;20037;-66
2023/06/12 00:34:41;;;;;;;7.00;5.00;;;;;;;22.91;39.41;101394.31;5192176;28;20053;-66
2023/06/12 00:37:14;;;;;;;6.90;4.87;;;;;;;22.81;39.58;101397.31;5193798;28;20030;-66
2023/06/12 00:39:45;;;;;;;7.47;4.85;;;;;;;22.72;39.99;101395.81;5190177;28;20255;-66
2023/06/12 00:42:16;;;;;;;7.73;4.83;;;;;;;22.55;40.68;101397.97;5189011;28;20061;-66
2023/06/12 00:44:48;;;;;;;7.70;4.90;;;;;;;22.49;39.97;101390.75;5192049;28;20207;-67
2023/06/12 00:47:20;;;;;;;6.97;5.10;;;;;;;22.46;40.31;101385.78;5192329;28;20101;-66
2023/06/12 00:49:51;;;;;;;5.47;4.80;;;;;;;22.42;40.31;101394.38;5192899;28;20045;-66
2023/06/12 00:52:25;;;;;;;7.97;5.20;;;;;;;22.48;40.73;101397.09;5193756;28;20076;-67
2023/06/12 00:54:58;;;;;;;8.65;5.28;;;;;;;22.29;40.80;101395.13;5192463;28;20030;-66
2023/06/12 00:57:29;;;;;;;7.38;4.82;;;;;;;22.37;40.41;101392.31;5185668;28;20065;-67
2023/06/12 01:00:01;;;;;;;7.83;5.33;;;;;;;22.25;40.96;101386.69;5192405;28;20121;-66
2023/06/12 01:02:39;;;;;;;12.43;5.77;;;;;;;22.32;40.93;101394.75;5191924;28;20029;-66
2023/06/12 01:05:13;;;;;;;8.40;5.32;;;;;;;22.19;41.13;101395.44;5191619;28;20125;-65
2023/06/12 01:07:51;;;;;;;12.10;5.57;;;;;;;22.16;41.15;101395.84;5193006;28;20388;-65
2023/06/12 01:10:39;;;;;;;10.02;5.57;;;;;;;22.14;41.56;101392.53;5193063;28;20022;-65
2023/06/12 01:13:12;;;;;;;7.70;5.32;;;;;;;21.90;42.21;101396.41;5189586;28;20599;-65
2023/06/12 01:15:43;;;;;;;9.52;5.10;;;;;;;21.87;42.25;101402.13;5191444;28;20033;-65
2023/06/12 01:18:21;;;;;;;6.60;4.80;;;;;;;21.92;42.45;101399.72;5189503;28;20026;-66
2023/06/12 01:20:55;;;;;;;5.75;5.15;;;;;;;21.82;42.45;101394.72;5190437;28;20026;-66
2023/06/12 01:23:55;;;;;;;6.97;5.10;;;;;;;21.95;41.98;101394.00;5189391;28;20116;-66
2023/06/12 01:26:58;;;;;;;8.02;5.72;;;;;;;22.17;41.36;101394.00;5191826;28;20048;-67
2023/06/12 01:29:49;;;;;;;9.35;5.72;;;;;;;22.03;41.67;101398.38;5170938;28;20092;-67
2023/06/12 01:32:23;;;;;;;6.15;5.55;;;;;;;21.58;42.63;101389.72;5188318;28;20105;-66
2023/06/12 01:35:03;;;;;;;6.18;5.43;;;;;;;21.68;42.58;101397.44;5190250;28;20026;-68
2023/06/12 01:37:47;;;;;;;8.45;5.25;;;;;;;21.73;42.69;101403.00;5190687;28;20034;-67
2023/06/12 01:40:21;;;;;;;6.93;5.25;;;;;;;21.50;42.84;101398.66;5191947;28;20029;-66
2023/06/12 01:42:52;;;;;;;8.73;5.22;;;;;;;21.42;43.00;101401.47;5189289;28;20092;-67
2023/06/12 01:45:25;;;;;;;7.30;5.90;;;;;;;21.42;43.02;101412.13;5192607;28;20504;-66
2023/06/12 01:47:56;;;;;;;8.93;5.18;;;;;;;21.55;42.96;101396.25;5187645;28;20031;-65
2023/06/12 01:50:27;;;;;;;7.20;5.80;;;;;;;21.37;43.50;101401.22;5192013;28;20377;-66
2023/06/12 01:52:58;;;;;;;7.67;5.90;;;;;;;21.32;43.41;101390.22;5190269;28;20661;-67
2023/06/12 01:55:30;;;;;;;6.63;5.63;;;;;;;21.32;43.28;101400.88;5191995;28;20546;-66
2023/06/12 01:58:01;;;;;;;7.73;5.43;;;;;;;21.27;43.60;101398.78;5188389;28;20034;-66
2023/06/12 02:00:32;;;;;;;9.43;5.43;;;;;;;21.18;43.92;101394.59;5191539;28;20045;-66
2023/06/12 02:03:04;;;;;;;7.40;5.20;;;;;;;21.23;44.40;101402.03;5189361;28;20038;-65
2023/06/12 02:05:35;;;;;;;8.23;5.63;;;;;;;21.12;44.14;101401.47;5187971;28;20122;-66
2023/06/12 02:08:06;;;;;;;6.50;5.50;;;;;;;21.10;43.97;101397.34;5191868;28;20033;-65
2023/06/12 02:10:38;;;;;;;8.37;5.33;;;;;;;21.05;44.24;101397.06;5191148;28;20026;-66
2023/06/12 02:13:09;;;;;;;8.23;6.27;;;;;;;20.99;44.18;101398.66;5190401;28;20038;-66
2023/06/12 02:15:40;;;;;;;7.77;5.43;;;;;;;21.02;44.45;101394.78;5191704;28;20097;-67
2023/06/12 02:18:12;;;;;;;8.07;5.87;;;;;;;20.99;44.52;101396.00;5189036;28;20036;-66
2023/06/12 02:20:43;;;;;;;8.43;5.70;;;;;;;20.94;44.78;101395.69;5187491;28;20030;-66
2023/06/12 02:23:15;;;;;;;8.00;5.20;;;;;;;20.97;44.93;101392.69;5191384;28;20400;-65
2023/06/12 02:25:46;;;;;;;7.40;5.03;;;;;;;20.84;45.31;101392.53;5187544;28;20558;-66
2023/06/12 02:28:18;;;;;;;7.17;6.37;;;;;;;20.86;45.37;101390.47;5190573;28;20246;-66
2023/06/12 02:30:49;;;;;;;7.63;5.73;;;;;;;20.75;45.53;101389.09;5192030;28;20116;-65
2023/06/12 02:33:22;;;;;;;8.30;5.40;;;;;;;20.86;45.44;101387.81;5188992;28;20034;-66
2023/06/12 02:35:53;;;;;;;8.65;5.55;;;;;;;20.74;45.75;101382.13;5189784;28;20058;-66
2023/06/12 02:38:26;;;;;;;7.13;5.73;;;;;;;20.69;45.93;101383.69;5190838;28;20113;-66
2023/06/12 02:40:57;;;;;;;6.20;5.53;;;;;;;20.64;46.28;101384.22;5190143;28;20027;-65
2023/06/12 02:43:28;;;;;;;6.67;5.50;;;;;;;20.63;45.87;101388.72;5189853;28;20034;-66
2023/06/12 02:46:00;;;;;;;9.83;5.67;;;;;;;20.54;46.53;101389.00;5191570;28;20065;-66
2023/06/12 02:48:31;;;;;;;9.07;6.43;;;;;;;20.61;46.31;101388.09;5190984;28;20412;-66
2023/06/12 02:51:02;;;;;;;9.87;6.03;;;;;;;20.60;46.68;101388.28;5188197;28;20165;-66
2023/06/12 02:53:34;;;;;;;8.73;6.00;;;;;;;20.47;46.28;101388.88;5187181;28;20034;-66
2023/06/12 02:56:05;;;;;;;10.13;5.90;;;;;;;20.48;46.79;101392.34;5189123;28;20054;-66
2023/06/12 02:58:39;;;;;;;6.93;6.23;;;;;;;20.39;46.71;101386.31;5190477;28;20084;-67
2023/06/12 03:01:11;;;;;;;10.85;6.07;;;;;;;20.32;47.52;101383.53;5186843;28;20034;-67
2023/06/12 03:03:43;;;;;;;7.47;5.73;;;;;;;20.28;47.45;101392.06;5184354;28;20388;-66
2023/06/12 03:06:14;;;;;;;9.03;5.97;;;;;;;20.16;48.13;101384.50;5188639;28;20026;-67
2023/06/12 03:08:45;;;;;;;9.60;6.10;;;;;;;20.14;47.90;101391.84;5190071;28;20412;-66
2023/06/12 03:11:16;;;;;;;8.47;6.43;;;;;;;20.16;48.01;101389.00;5188447;28;20057;-66
2023/06/12 03:13:48;;;;;;;7.50;6.63;;;;;;;20.19;48.40;101383.31;5189972;28;20026;-66
2023/06/12 03:16:20;;;;;;;10.13;6.23;;;;;;;20.12;47.96;101388.53;5190254;28;20058;-66
2023/06/12 03:18:52;;;;;;;9.32;6.03;;;;;;;20.00;48.24;101383.81;5189014;28;20428;-67
2023/06/12 03:21:23;;;;;;;11.30;6.60;;;;;;;19.92;49.19;101390.84;5190998;28;20506;-66
2023/06/12 03:23:56;;;;;;;7.73;6.00;;;;;;;19.93;49.15;101392.53;5188190;28;20026;-66
2023/06/12 03:26:30;;;;;;;8.25;6.05;;;;;;;20.04;48.96;101387.75;5189516;28;20466;-67
2023/06/12 03:29:02;;;;;;;11.27;6.22;;;;;;;20.02;49.48;101395.09;5170867;28;20030;-67
2023/06/12 03:31:33;;;;;;;9.67;6.70;;;;;;;19.99;49.00;101403.44;5188435;28;20049;-66
2023/06/12 03:34:05;;;;;;;7.05;6.32;;;;;;;19.89;48.72;101398.38;5188935;28;20407;-66
2023/06/12 03:36:37;;;;;;;10.73;6.30;;;;;;;19.86;49.16;101404.03;5188761;28;20132;-66
2023/06/12 03:39:09;;;;;;;7.38;5.30;;;;;;;19.93;49.03;101405.00;5190125;28;20142;-67
2023/06/12 03:41:56;;;;;;;7.55;5.93;;;;;;;20.02;48.39;101406.56;5190153;28;20039;-66
2023/06/12 03:44:27;;;;;;;7.47;5.75;;;;;;;19.75;49.78;101404.47;5189795;28;20056;-67
2023/06/12 03:46:58;;;;;;;7.07;5.77;;;;;;;19.75;49.67;101413.25;5187418;28;20046;-67
2023/06/12 03:49:29;;;;;;;7.32;5.53;;;;;;;19.73;50.18;101409.94;5186550;28;21238;-66
2023/06/12 03:52:01;;;;;;;11.52;7.15;;;;;;;19.69;49.81;101406.78;5187212;28;20045;-66
2023/06/12 03:54:32;;;;;;;11.90;7.10;;;;;;;19.73;49.23;101404.63;5189899;28;20118;-66
2023/06/12 03:57:03;;;;;;;9.23;7.03;;;;;;;19.72;49.98;101400.31;5187378;28;20471;-66
2023/06/12 03:59:35;;;;;;;13.10;7.37;;;;;;;19.68;50.43;101405.16;5171874;28;20026;-66
2023/06/12 04:02:06;;;;;;;10.00;6.78;;;;;;;19.74;50.55;101406.28;5189139;28;20088;-67
2023/06/12 04:04:37;;;;;;;8.70;7.60;;;;;;;19.78;50.37;101406.75;5187834;28;20412;-66
2023/06/12 04:07:09;;;;;;;11.60;7.40;;;;;;;19.68;50.67;101421.09;5193580;28;20056;-66
2023/06/12 04:09:40;;;;;;;14.80;8.07;;;;;;;19.79;50.59;101419.06;5194984;28;20033;-67
2023/06/12 04:12:11;;;;;;;9.50;6.93;;;;;;;19.60;51.21;101423.78;5191122;28;20065;-66
2023/06/12 04:14:42;;;;;;;9.83;7.97;;;;;;;19.60;51.53;101428.28;5192276;28;20041;-66
2023/06/12 04:17:14;;;;;;;16.17;7.65;;;;;;;19.64;51.72;101426.94;5193167;28;20026;-66
2023/06/12 04:19:48;;;;;;;11.95;7.10;;;;;;;19.68;52.25;101431.72;5192811;28;20030;-65
2023/06/12 04:22:19;;;;;;;13.57;8.13;;;;;;;19.57;51.81;101432.09;5189962;28;20361;-65
2023/06/12 04:24:52;;;;;;;9.48;7.53;;;;;;;19.64;51.84;101433.09;5188394;28;20041;-66
2023/06/12 04:27:23;;;;;;;;;;;;;;;20.30;48.86;101432.59;5194111;28;20097;-66
2023/06/12 04:29:57;;;;;;;12.32;7.20;;;;;;;19.67;51.17;101435.41;5192250;28;20447;-65
2023/06/12 04:32:29;;;;;;;10.85;7.45;;;;;;;19.64;52.63;101433.09;5192131;28;20399;-65
2023/06/12 04:35:01;;;;;;;12.47;7.87;;;;;;;19.63;52.27;101436.75;5193491;28;20424;-65
2023/06/12 04:37:32;;;;;;;15.30;8.50;;;;;;;19.72;51.84;101426.91;5190395;28;20601;-66
2023/06/12 04:40:04;;;;;;;10.13;7.40;;;;;;;19.69;52.20;101427.25;5190466;28;20490;-66
2023/06/12 04:42:36;;;;;;;11.53;8.17;;;;;;;19.70;52.32;101426.25;5193637;28;20026;-65
2023/06/12 04:45:09;;;;;;;10.63;7.70;;;;;;;19.77;52.48;101421.88;5193146;28;20388;-65
2023/06/12 04:47:40;;;;;;;10.75;7.38;;;;;;;19.75;52.77;101425.72;5190785;28;20053;-65
2023/06/12 04:50:12;;;;;;;9.73;7.68;;;;;;;19.85;52.58;101432.47;5191645;28;20026;-66
2023/06/12 04:52:43;;;;;;;11.60;8.13;;;;;;;19.89;52.27;101438.28;5193221;28;20070;-67
2023/06/12 04:55:20;;;;;;;14.43;7.50;;;;;;;19.96;52.55;101433.88;5189221;28;20068;-67
2023/06/12 04:57:55;;;;;;;12.60;8.02;;;;;;;19.97;52.42;101432.88;5187319;28;20077;-67
2023/06/12 05:00:28;;;;;;;13.52;8.60;;;;;;;19.99;51.75;101432.69;5189338;28;20035;-66
2023/06/12 05:03:00;;;;;;;10.27;8.35;;;;;;;20.00;52.58;101442.31;5191202;28;20035;-67
2023/06/12 05:05:31;;;;;;;14.80;8.03;;;;;;;20.03;51.73;101440.13;5191191;28;20045;-66
2023/06/12 05:08:03;;;;;;;14.93;8.27;;;;;;;20.12;51.86;101440.94;5186424;28;20130;-66
2023/06/12 05:10:34;;;;;;;9.87;8.20;;;;;;;20.15;51.88;101444.06;5188956;28;20022;-66
2023/06/12 05:13:06;;;;;;;12.50;8.83;;;;;;;20.17;52.12;101443.88;5188692;28;20022;-67
2023/06/12 05:15:37;;;;;;;10.07;7.07;;;;;;;20.24;52.09;101442.16;5189804;28;20038;-66
2023/06/12 05:18:08;;;;;;;11.50;8.10;;;;;;;20.27;52.18;101436.47;5193092;28;20022;-67
2023/06/12 05:20:40;;;;;;;10.77;8.33;;;;;;;20.32;52.14;101442.06;5186492;28;20038;-66
2023/06/12 05:23:11;;;;;;;9.70;7.93;;;;;;;20.32;51.69;101439.41;5190074;28;20108;-66
2023/06/12 05:25:42;;;;;;;17.67;8.53;;;;;;;20.40;51.79;101441.19;5191884;28;20658;-67
2023/06/12 05:28:15;;;;;;;12.75;8.93;;;;;;;20.46;51.80;101443.13;5191575;28;20046;-66
2023/06/12 05:30:47;;;;;;;9.60;8.60;;;;;;;20.51;51.47;101445.28;5190970;28;20034;-66
2023/06/12 05:33:18;;;;;;;11.82;8.38;;;;;;;20.53;52.40;101436.09;5188202;28;20026;-66
2023/06/12 05:35:50;;;;;;;14.70;9.00;;;;;;;20.58;53.39;101444.38;5190866;28;21134;-66
2023/06/12 05:38:22;;;;;;;10.37;8.20;;;;;;;20.64;51.08;101440.13;5192527;28;20419;-68
2023/06/12 05:40:53;;;;;;;11.87;8.77;;;;;;;20.75;51.58;101431.69;5192594;28;20183;-68
2023/06/12 05:43:24;;;;;;;11.32;9.52;;;;;;;20.86;51.74;101435.75;5189908;28;20484;-68
2023/06/12 05:45:56;;;;;;;10.67;9.13;;;;;;;20.93;51.40;101430.53;5191161;28;20423;-69
2023/06/12 05:48:27;;;;;;;11.23;9.20;;;;;;;20.97;50.73;101429.97;5191322;28;20080;-67
2023/06/12 05:50:58;;;;;;;13.07;8.93;;;;;;;21.07;51.05;101433.19;5186977;28;20030;-66
2023/06/12 05:53:30;;;;;;;12.20;9.40;;;;;;;21.16;51.20;101433.91;5180912;28;20067;-67
2023/06/12 05:56:02;;;;;;;10.57;8.80;;;;;;;21.28;51.06;101428.94;5184699;28;20030;-66
2023/06/12 05:58:33;;;;;;;12.93;8.67;;;;;;;21.38;50.30;101426.84;5188808;28;20030;-67
2023/06/12 06:01:04;;;;;;;12.03;9.53;;;;;;;21.43;49.49;101410.28;5185638;28;20026;-67
2023/06/12 06:03:36;;;;;;;12.23;9.87;;;;;;;21.62;48.84;101423.81;5190361;28;20446;-67
2023/06/12 06:06:17;;;;;;;11.93;8.87;;;;;;;21.84;49.07;101424.66;5190819;28;20018;-67
2023/06/12 06:08:48;;;;;;;14.63;9.38;;;;;;;21.80;48.07;101423.41;5189050;28;20046;-66
2023/06/12 06:11:20;;;;;;;10.60;8.53;;;;;;;21.98;47.94;101427.47;5192168;28;20021;-67
2023/06/12 06:13:51;;;;;;;15.93;8.53;;;;;;;22.06;48.26;101433.50;5192003;28;20035;-66
2023/06/12 06:16:22;;;;;;;14.33;8.33;;;;;;;22.24;46.85;101429.59;5185835;28;20582;-67
2023/06/12 06:18:54;;;;;;;12.17;8.77;;;;;;;22.36;46.83;101425.38;5189149;28;20042;-67
2023/06/12 06:21:25;;;;;;;12.07;8.90;;;;;;;22.44;46.52;101433.22;5191011;28;20092;-67
2023/06/12 06:23:56;;;;;;;10.40;8.50;;;;;;;22.53;46.72;101431.22;5187431;28;20038;-67
2023/06/12 06:26:28;;;;;;;13.70;8.97;;;;;;;22.66;46.85;101434.00;5184800;28;20408;-67
2023/06/12 06:28:59;;;;;;;12.37;7.97;;;;;;;22.77;44.97;101438.81;5189914;28;20046;-67
2023/06/12 06:31:30;;;;;;;10.07;7.43;;;;;;;22.93;46.14;101443.03;5182428;28;20038;-67
2023/06/12 06:34:01;;;;;;;10.40;7.80;;;;;;;23.00;45.28;101443.91;5189106;28;20511;-68
2023/06/12 06:36:33;;;;;;;12.17;7.83;;;;;;;23.13;44.19;101447.66;5190028;28;20392;-68
2023/06/12 06:39:04;;;;;;;9.57;6.90;;;;;;;23.24;45.32;101444.44;5188754;28;20392;-68
2023/06/12 06:41:37;;;;;;;12.67;7.53;;;;;;;23.40;44.46;101440.56;5185421;28;20460;-68
2023/06/12 06:44:09;;;;;;;11.82;6.63;;;;;;;23.48;44.58;101438.53;5187849;28;20033;-67
2023/06/12 06:46:40;;;;;;;10.47;6.77;;;;;;;23.73;42.34;101443.38;5187200;28;20563;-67
2023/06/12 06:49:11;;;;;;;7.87;5.77;;;;;;;23.86;42.92;101442.56;5187410;28;20105;-67
2023/06/12 06:51:43;;;;;;;9.80;5.97;;;;;;;23.98;44.07;101448.97;5188156;28;20116;-67
2023/06/12 06:54:14;;;;;;;10.53;5.67;;;;;;;24.14;43.16;101437.88;5186918;28;20492;-67
2023/06/12 06:56:46;;;;;;;7.77;5.90;;;;;;;24.26;42.11;101441.59;5187850;28;20602;-68
2023/06/12 06:59:18;;;;;;;6.97;5.45;;;;;;;24.33;41.50;101432.75;5191103;28;20113;-68
2023/06/12 07:01:49;;;;;;;9.90;6.07;;;;;;;24.49;41.37;101443.88;5186342;28;20046;-67
2023/06/12 07:04:20;;;;;;;7.00;5.73;;;;;;;24.61;42.25;101435.22;5190491;28;20494;-68
2023/06/12 07:06:52;;;;;;;7.37;5.40;;;;;;;24.65;40.57;101439.13;5189436;28;20076;-68
2023/06/12 07:09:24;;;;;;;9.20;5.57;;;;;;;24.85;40.76;101431.03;5189795;28;20041;-67
2023/06/12 07:11:55;;;;;;;6.90;5.25;;;;;;;24.93;40.03;101434.31;5186170;28;20354;-67
2023/06/12 07:14:27;;;;;;;10.10;5.20;;;;;;;25.12;40.90;101435.31;5187993;28;20030;-68
2023/06/12 07:16:58;;;;;;;9.37;5.63;;;;;;;25.30;39.31;101428.44;5185946;28;20022;-67
2023/06/12 07:19:30;;;;;;;8.97;5.40;;;;;;;25.33;37.63;101430.69;5185384;28;20117;-67
2023/06/12 07:22:01;;;;;;;8.68;5.65;;;;;;;25.40;38.52;101429.63;5190200;28;20080;-67
2023/06/12 07:24:33;;;;;;;9.53;5.20;;;;;;;25.66;37.86;101428.66;5188734;28;20488;-67
2023/06/12 07:27:04;;;;;;;9.97;5.10;;;;;;;25.68;38.48;101421.22;5188409;28;20054;-67
2023/06/12 07:29:36;;;;;;;9.30;5.50;;;;;;;25.88;37.89;101420.28;5171833;28;20030;-67
2023/06/12 07:32:09;;;;;;;10.77;5.80;;;;;;;25.99;37.94;101426.78;5188414;28;20109;-67
2023/06/12 07:34:41;;;;;;;7.13;5.10;;;;;;;26.01;37.05;101430.09;5185062;28;20030;-67
2023/06/12 07:37:12;;;;;;;8.80;5.00;;;;;;;26.16;37.06;101417.16;5189865;28;20032;-68
2023/06/12 07:39:43;;;;;;;6.93;5.60;;;;;;;26.37;36.79;101426.72;5190871;28;20026;-67
2023/06/12 07:42:15;;;;;;;6.83;5.80;;;;;;;26.54;35.95;101429.69;5192123;28;20034;-68
2023/06/12 07:44:46;;;;;;;7.50;4.93;;;;;;;26.55;36.61;101423.25;5193068;28;20057;-68
2023/06/12 07:47:18;;;;;;;6.60;4.70;;;;;;;26.67;36.42;101419.63;5190326;28;20026;-70
2023/06/12 07:49:49;;;;;;;8.77;4.83;;;;;;;26.74;36.06;101424.09;5193557;28;20041;-68
2023/06/12 07:52:20;;;;;;;7.63;5.23;;;;;;;26.78;35.75;101412.66;5193165;28;20061;-68
2023/06/12 07:54:52;;;;;;;6.13;5.40;;;;;;;26.88;35.61;101412.16;5193666;28;20392;-68
2023/06/12 07:57:23;;;;;;;7.27;5.30;;;;;;;27.10;35.20;101424.09;5193636;28;20026;-68
2023/06/12 07:59:54;;;;;;;5.30;4.73;;;;;;;27.38;35.88;101423.53;5189497;28;20034;-67
2023/06/12 08:02:28;;;;;;;7.80;5.17;;;;;;;27.39;35.68;101424.38;5191905;28;20061;-68
2023/06/12 08:05:00;;;;;;;8.45;5.10;;;;;;;27.40;34.13;101423.34;5193648;28;20034;-68
2023/06/12 08:07:33;;;;;;;7.80;5.18;;;;;;;27.65;34.14;101420.47;5192791;28;20073;-68
2023/06/12 08:10:07;;;;;;;7.72;5.60;;;;;;;27.75;33.25;101417.28;5188166;28;20110;-68
2023/06/12 08:12:38;;;;;;;6.32;5.10;;;;;;;27.91;33.68;101407.69;5186919;28;20034;-68
2023/06/12 08:15:11;;;;;;;5.97;4.47;;;;;;;28.08;35.10;101417.56;5184917;28;20029;-68
2023/06/12 08:17:42;;;;;;;;;;;;;;;28.72;33.21;101415.00;5188581;28;20038;-68
2023/06/12 08:20:15;;;;;;;7.73;5.10;;;;;;;28.25;34.23;101416.88;5189225;28;19925;-68
2023/06/12 08:22:46;;;;;;;8.27;4.75;;;;;;;28.33;33.17;101417.34;5186464;28;20735;-69
2023/06/12 08:25:17;;;;;;;5.73;4.73;;;;;;;28.50;33.33;101425.59;5187473;28;20034;-68
2023/06/12 08:27:49;;;;;;;5.90;4.47;;;;;;;28.84;33.23;101413.09;5185994;28;20054;-68
2023/06/12 08:30:20;;;;;;;6.93;5.07;;;;;;;28.81;31.87;101413.56;5163546;28;20037;-68
2023/06/12 08:32:51;;;;;;;6.73;5.00;;;;;;;28.88;31.98;101418.84;5188087;28;20033;-68
2023/06/12 08:35:23;;;;;;;8.13;4.60;;;;;;;28.90;32.14;101408.63;5188304;28;20030;-68
2023/06/12 08:37:54;;;;;;;11.37;4.90;;;;;;;28.95;31.87;101413.31;5189047;28;20137;-68
2023/06/12 08:40:26;;;;;;;7.97;4.77;;;;;;;28.93;31.84;101416.25;5189343;28;20042;-70
2023/06/12 08:42:57;;;;;;;8.63;5.17;;;;;;;28.94;32.67;101415.19;5188670;28;20365;-68
2023/06/12 08:45:32;;;;;;;6.80;4.57;;;;;;;29.14;32.29;101414.00;5187684;28;20070;-69
2023/06/12 08:48:06;;;;;;;8.88;5.03;;;;;;;29.10;31.66;101413.66;5190103;28;20403;-70
2023/06/12 08:50:38;;;;;;;7.53;4.65;;;;;;;29.37;31.63;101407.69;5187681;28;20030;-69
2023/06/12 08:53:09;;;;;;;8.13;4.63;;;;;;;29.56;30.88;101404.53;5189082;28;20026;-69
2023/06/12 08:55:41;;;;;;;5.07;4.57;;;;;;;29.61;30.80;101405.72;5187193;28;20281;-69
2023/06/12 08:58:13;;;;;;;7.25;4.57;;;;;;;29.68;31.19;101407.22;5189576;28;20038;-70
2023/06/12 09:00:44;;;;;;;5.37;4.83;;;;;;;29.69;29.84;101408.03;5186058;28;20965;-70
2023/06/12 09:03:16;;;;;;;6.90;4.50;;;;;;;29.78;30.72;101401.97;5187552;28;20329;-69
2023/06/12 09:05:51;;;;;;;5.73;4.60;;;;;;;29.92;30.99;101409.75;5186474;28;20102;-69
2023/06/12 09:08:22;;;;;;;6.93;4.38;;;;;;;30.12;30.77;101402.00;5188820;28;20447;-69
2023/06/12 09:10:53;;;;;;;5.70;4.30;;;;;;;30.29;29.73;101397.38;5187910;28;20040;-70
2023/06/12 09:13:25;;;;;;;6.37;4.63;;;;;;;30.41;29.67;101400.00;5185494;28;20027;-69
2023/06/12 09:15:56;;;;;;;6.27;4.60;;;;;;;30.54;29.69;101391.53;5189636;28;20045;-70
2023/06/12 09:18:27;;;;;;;6.90;4.40;;;;;;;30.60;29.24;101392.41;5188944;28;20519;-69
2023/06/12 09:21:05;;;;;;;5.23;4.43;;;;;;;30.68;29.47;101388.44;5188738;28;20112;-69
2023/06/12 09:23:37;;;;;;;6.50;4.60;;;;;;;30.63;28.57;101381.09;5186868;28;20023;-69
2023/06/12 09:26:15;;;;;;;8.95;4.75;;;;;;;30.70;28.44;101381.72;5171178;28;20038;-69
2023/06/12 09:28:53;;;;;;;6.28;4.30;;;;;;;30.68;28.36;101391.97;5188874;28;20113;-69
2023/06/12 09:31:24;;;;;;;7.55;4.88;;;;;;;30.63;27.86;101386.50;5186299;28;20534;-69
2023/06/12 09:33:55;;;;;;;5.90;4.30;;;;;;;30.72;28.14;101389.56;5188206;28;20118;-69
2023/06/12 09:36:27;;;;;;;7.10;5.00;;;;;;;30.80;28.25;101380.22;5188334;28;20529;-70
2023/06/12 09:38:59;;;;;;;6.53;4.35;;;;;;;30.87;28.27;101392.50;5185725;28;20039;-70
2023/06/12 09:41:30;;;;;;;5.45;4.68;;;;;;;30.83;27.69;101391.38;5188876;28;20030;-69
2023/06/12 09:44:02;;;;;;;4.83;4.00;;;;;;;30.89;27.23;101389.56;5186620;28;20504;-69
2023/06/12 09:46:34;;;;;;;5.03;4.45;;;;;;;30.82;27.27;101383.53;5188882;28;20018;-70
2023/06/12 09:49:09;;;;;;;6.53;4.27;;;;;;;30.89;27.60;101387.66;5188736;28;20034;-69
2023/06/12 09:51:43;;;;;;;9.38;4.68;;;;;;;31.04;27.99;101389.75;5184754;28;20133;-69
2023/06/12 09:54:16;;;;;;;6.30;4.65;;;;;;;31.00;27.31;101400.25;5181565;28;20070;-70
2023/06/12 09:56:49;;;;;;;5.65;4.20;;;;;;;31.11;27.27;101384.94;5191005;28;20502;-70
2023/06/12 09:59:21;;;;;;;4.65;4.18;;;;;;;31.15;27.85;101399.59;5190075;28;20376;-70
2023/06/12 10:01:55;;;;;;;;;;;;;;;31.92;26.23;101393.06;5186888;28;20041;-70
2023/06/12 10:04:33;;;;;;;5.95;4.57;;;;;;;31.38;27.80;101393.09;5187426;28;20299;-70
2023/06/12 10:07:11;;;;;;;5.63;4.15;;;;;;;31.40;27.41;101390.94;5187337;28;20030;-70
2023/06/12 10:09:42;;;;;;;4.43;4.03;;;;;;;31.53;27.44;101397.84;5188742;28;20435;-69
2023/06/12 10:12:15;;;;;;;5.43;4.28;;;;;;;31.62;26.93;101387.34;5185242;28;20033;-70
2023/06/12 10:14:47;;;;;;;5.90;4.50;;;;;;;31.76;27.10;101388.56;5187850;28;20026;-69
2023/06/12 10:17:19;;;;;;;4.38;3.88;;;;;;;32.03;27.34;101380.41;5187008;28;20035;-70
2023/06/12 10:19:53;;;;;;;8.25;4.28;;;;;;;31.90;26.94;101378.97;5187159;28;20083;-70
2023/06/12 10:22:24;;;;;;;5.65;4.43;;;;;;;31.79;26.82;101381.81;5185696;28;20040;-71
2023/06/12 10:24:57;;;;;;;5.67;4.50;;;;;;;31.92;26.66;101373.28;5188168;28;20026;-70
2023/06/12 10:27:29;;;;;;;7.15;4.55;;;;;;;31.78;26.58;101383.69;5185712;28;20116;-70
2023/06/12 10:30:01;;;;;;;8.43;4.05;;;;;;;31.77;26.27;101382.06;5181073;28;20370;-69
2023/06/12 10:32:32;;;;;;;4.93;4.43;;;;;;;31.76;26.20;101383.16;5186450;28;20064;-71
2023/06/12 10:35:04;;;;;;;8.85;4.50;;;;;;;31.88;26.29;101377.59;5188044;28;20112;-69
2023/06/12 10:37:42;;;;;;;5.28;4.22;;;;;;;32.01;26.57;101374.41;5185927;28;20034;-71
2023/06/12 10:40:16;;;;;;;4.88;4.20;;;;;;;31.73;26.27;101373.63;5185258;28;20030;-70
2023/06/12 10:42:53;;;;;;;7.30;4.60;;;;;;;32.12;26.72;101375.28;5184810;28;20095;-70
2023/06/12 10:45:25;;;;;;;6.00;4.70;;;;;;;32.20;26.79;101367.50;5187417;28;20550;-69
2023/06/12 10:48:05;;;;;;;5.70;4.55;;;;;;;32.11;26.57;101366.34;5182206;28;20022;-67
2023/06/12 10:50:41;;;;;;;7.25;4.45;;;;;;;32.23;26.59;101355.31;5185776;28;20038;-70
2023/06/12 10:53:14;;;;;;;6.53;4.43;;;;;;;32.14;25.37;101362.31;5168946;28;20444;-69
2023/06/12 10:55:45;;;;;;;7.32;4.70;;;;;;;32.39;25.66;101348.06;5185700;28;20513;-69
2023/06/12 10:58:23;;;;;;;6.43;4.43;;;;;;;32.60;25.25;101352.53;5185696;28;20041;-70
2023/06/12 11:00:54;;;;;;;4.95;4.03;;;;;;;32.45;26.45;101361.41;5183717;28;20278;-69
2023/06/12 11:03:28;;;;;;;7.50;4.30;;;;;;;32.46;25.15;101351.38;5185657;28;20042;-70
2023/06/12 11:06:12;;;;;;;6.20;4.47;;;;;;;32.71;26.62;101339.84;5186014;28;20034;-70
2023/06/12 11:08:46;;;;;;;6.80;4.82;;;;;;;32.85;25.34;101340.16;5186139;28;20030;-70
2023/06/12 11:11:17;;;;;;;8.15;4.68;;;;;;;32.78;25.00;101342.31;5184837;28;20036;-70
2023/06/12 11:13:48;;;;;;;5.23;4.50;;;;;;;32.75;25.22;101354.50;5182694;28;20034;-70
2023/06/12 11:16:22;;;;;;;5.23;4.43;;;;;;;32.70;25.03;101346.34;5186601;28;20307;-69
2023/06/12 11:19:05;;;;;;;6.63;4.72;;;;;;;32.91;25.91;101342.59;5186983;28;20558;-69
2023/06/12 11:21:37;;;;;;;;;;;;;;;33.70;25.47;101339.75;5186347;28;20109;-70
2023/06/12 11:24:11;;;;;;;6.32;4.50;;;;;;;32.94;25.91;101333.13;5185835;28;20467;-70
2023/06/12 11:26:42;;;;;;;8.30;5.10;;;;;;;32.87;25.57;101340.69;5183293;28;20121;-70
2023/06/12 11:29:17;;;;;;;;;;;;;;;33.80;25.29;101331.59;5187176;28;20084;-69
2023/06/12 11:31:50;;;;;;;7.78;4.50;;;;;;;33.31;24.99;101329.41;5184998;28;20267;-71
2023/06/12 11:34:21;;;;;;;7.32;4.80;;;;;;;33.35;25.72;101330.50;5186132;28;20072;-69
2023/06/12 11:36:52;;;;;;;;;;;;;;;34.18;24.52;101335.59;5186406;28;20034;-69
2023/06/12 11:39:24;;;;;;;5.17;4.67;;;;;;;33.45;24.92;101327.75;5184553;28;19918;-70
2023/06/12 11:41:55;;;;;;;;;;;;;;;34.35;24.51;101317.03;5185264;28;20058;-69
2023/06/12 11:44:27;;;;;;;6.33;5.37;;;;;;;33.62;24.78;101317.47;5186265;28;19921;-70
2023/06/12 11:46:59;;;;;;;6.18;4.75;;;;;;;33.45;24.64;101324.22;5181974;28;20130;-71
2023/06/12 11:49:31;;;;;;;;;;;;;;;34.41;24.24;101326.00;5185764;28;20387;-71